sensor_id;sensor_type;location;lat;lon;timestamp;P1;durP1;ratioP1;P2;durP2;ratioP2
58139;SDS011;53185;47.378;18.922;2022-08-19T00:01:43;9.40;;;7.78;;
58139;SDS011;53185;47.378;18.922;2022-08-19T00:04:21;20.45;;;8.20;;
58139;SDS011;53185;47.378;18.922;2022-08-19T00:06:49;13.10;;;8.40;;
58139;SDS011;53185;47.378;18.922;2022-08-19T00:09:18;14.55;;;8.55;;
58139;SDS011;53185;47.378;18.922;2022-08-19T00:11:46;14.97;;;9.17;;
58139;SDS011;53185;47.378;18.922;2022-08-19T00:14:14;13.25;;;7.90;;
58139;SDS011;53185;47.378;18.922;2022-08-19T00:16:43;14.35;;;8.40;;
58139;SDS011;53185;47.378;18.922;2022-08-19T00:19:11;12.40;;;8.18;;
58139;SDS011;53185;47.378;18.922;2022-08-19T00:21:38;12.57;;;8.13;;
58139;SDS011;53185;47.378;18.922;2022-08-19T00:24:07;12.18;;;8.27;;
58139;SDS011;53185;47.378;18.922;2022-08-19T00:26:34;8.98;;;7.30;;
58139;SDS011;53185;47.378;18.922;2022-08-19T00:29:02;12.88;;;8.68;;
58139;SDS011;53185;47.378;18.922;2022-08-19T00:31:30;12.90;;;8.13;;
58139;SDS011;53185;47.378;18.922;2022-08-19T00:33:58;11.90;;;7.68;;
58139;SDS011;53185;47.378;18.922;2022-08-19T00:36:25;12.63;;;7.62;;
58139;SDS011;53185;47.378;18.922;2022-08-19T00:38:52;8.95;;;7.72;;
58139;SDS011;53185;47.378;18.922;2022-08-19T00:41:20;10.95;;;7.35;;
58139;SDS011;53185;47.378;18.922;2022-08-19T00:44:00;12.88;;;8.20;;
58139;SDS011;53185;47.378;18.922;2022-08-19T00:46:57;17.33;;;8.70;;
58139;SDS011;53185;47.378;18.922;2022-08-19T00:52:26;12.10;;;7.90;;
58139;SDS011;53185;47.378;18.922;2022-08-19T00:55:00;11.32;;;8.52;;
58139;SDS011;53185;47.378;18.922;2022-08-19T00:57:31;11.73;;;8.00;;
58139;SDS011;53185;47.378;18.922;2022-08-19T01:00:08;12.57;;;8.02;;
58139;SDS011;53185;47.378;18.922;2022-08-19T01:02:38;13.05;;;8.05;;
58139;SDS011;53185;47.378;18.922;2022-08-19T01:05:06;13.32;;;8.00;;
58139;SDS011;53185;47.378;18.922;2022-08-19T01:07:35;11.15;;;7.85;;
58139;SDS011;53185;47.378;18.922;2022-08-19T01:10:06;10.32;;;7.72;;
58139;SDS011;53185;47.378;18.922;2022-08-19T01:12:35;10.73;;;8.63;;
58139;SDS011;53185;47.378;18.922;2022-08-19T01:15:04;16.75;;;8.75;;
58139;SDS011;53185;47.378;18.922;2022-08-19T01:17:36;16.12;;;8.65;;
58139;SDS011;53185;47.378;18.922;2022-08-19T01:20:12;13.00;;;8.18;;
58139;SDS011;53185;47.378;18.922;2022-08-19T01:22:46;13.05;;;7.80;;
58139;SDS011;53185;47.378;18.922;2022-08-19T01:25:16;14.43;;;7.50;;
58139;SDS011;53185;47.378;18.922;2022-08-19T01:27:51;11.12;;;8.60;;
58139;SDS011;53185;47.378;18.922;2022-08-19T01:30:21;19.42;;;8.43;;
58139;SDS011;53185;47.378;18.922;2022-08-19T01:32:54;13.40;;;8.07;;
58139;SDS011;53185;47.378;18.922;2022-08-19T01:35:22;12.57;;;8.55;;
58139;SDS011;53185;47.378;18.922;2022-08-19T01:40:19;13.77;;;8.43;;
58139;SDS011;53185;47.378;18.922;2022-08-19T01:42:48;18.20;;;8.53;;
58139;SDS011;53185;47.378;18.922;2022-08-19T01:45:16;17.17;;;8.73;;
58139;SDS011;53185;47.378;18.922;2022-08-19T01:47:44;9.98;;;7.80;;
58139;SDS011;53185;47.378;18.922;2022-08-19T01:50:28;13.30;;;8.02;;
58139;SDS011;53185;47.378;18.922;2022-08-19T01:55:34;13.25;;;7.30;;
58139;SDS011;53185;47.378;18.922;2022-08-19T01:58:11;14.00;;;7.53;;
58139;SDS011;53185;47.378;18.922;2022-08-19T02:00:40;11.12;;;7.70;;
58139;SDS011;53185;47.378;18.922;2022-08-19T02:03:07;13.32;;;8.43;;
58139;SDS011;53185;47.378;18.922;2022-08-19T02:05:35;12.80;;;8.15;;
58139;SDS011;53185;47.378;18.922;2022-08-19T02:08:03;10.68;;;7.87;;
58139;SDS011;53185;47.378;18.922;2022-08-19T02:10:30;10.50;;;8.30;;
58139;SDS011;53185;47.378;18.922;2022-08-19T02:12:58;28.62;;;8.35;;
58139;SDS011;53185;47.378;18.922;2022-08-19T02:15:25;17.12;;;8.38;;
58139;SDS011;53185;47.378;18.922;2022-08-19T02:17:52;16.17;;;8.60;;
58139;SDS011;53185;47.378;18.922;2022-08-19T02:20:20;13.10;;;8.65;;
58139;SDS011;53185;47.378;18.922;2022-08-19T02:22:47;13.40;;;8.35;;
58139;SDS011;53185;47.378;18.922;2022-08-19T02:25:14;14.38;;;8.55;;
58139;SDS011;53185;47.378;18.922;2022-08-19T02:27:41;18.45;;;9.13;;
58139;SDS011;53185;47.378;18.922;2022-08-19T02:30:11;15.40;;;9.25;;
58139;SDS011;53185;47.378;18.922;2022-08-19T02:32:40;9.32;;;8.20;;
58139;SDS011;53185;47.378;18.922;2022-08-19T02:35:20;12.77;;;8.30;;
58139;SDS011;53185;47.378;18.922;2022-08-19T02:37:47;12.82;;;8.18;;
58139;SDS011;53185;47.378;18.922;2022-08-19T02:40:33;17.90;;;9.50;;
58139;SDS011;53185;47.378;18.922;2022-08-19T02:43:01;12.55;;;8.93;;
58139;SDS011;53185;47.378;18.922;2022-08-19T02:45:36;11.00;;;8.43;;
58139;SDS011;53185;47.378;18.922;2022-08-19T02:48:07;11.38;;;7.97;;
58139;SDS011;53185;47.378;18.922;2022-08-19T02:53:19;12.27;;;9.00;;
58139;SDS011;53185;47.378;18.922;2022-08-19T02:55:48;14.93;;;8.90;;
58139;SDS011;53185;47.378;18.922;2022-08-19T02:58:16;12.30;;;8.82;;
58139;SDS011;53185;47.378;18.922;2022-08-19T03:00:47;14.52;;;9.32;;
58139;SDS011;53185;47.378;18.922;2022-08-19T03:03:16;13.60;;;9.50;;
58139;SDS011;53185;47.378;18.922;2022-08-19T03:05:44;13.77;;;8.45;;
58139;SDS011;53185;47.378;18.922;2022-08-19T03:08:23;13.95;;;8.60;;
58139;SDS011;53185;47.378;18.922;2022-08-19T03:10:50;15.60;;;9.02;;
58139;SDS011;53185;47.378;18.922;2022-08-19T03:13:19;10.75;;;7.97;;
58139;SDS011;53185;47.378;18.922;2022-08-19T03:15:47;12.23;;;8.05;;
58139;SDS011;53185;47.378;18.922;2022-08-19T03:18:14;21.12;;;11.85;;
58139;SDS011;53185;47.378;18.922;2022-08-19T03:20:44;13.70;;;8.48;;
58139;SDS011;53185;47.378;18.922;2022-08-19T03:23:13;13.70;;;9.13;;
58139;SDS011;53185;47.378;18.922;2022-08-19T03:25:41;19.05;;;8.93;;
58139;SDS011;53185;47.378;18.922;2022-08-19T03:28:11;10.13;;;8.32;;
58139;SDS011;53185;47.378;18.922;2022-08-19T03:30:40;22.65;;;8.82;;
58139;SDS011;53185;47.378;18.922;2022-08-19T03:33:09;15.88;;;8.50;;
58139;SDS011;53185;47.378;18.922;2022-08-19T03:35:44;16.73;;;9.10;;
58139;SDS011;53185;47.378;18.922;2022-08-19T03:38:11;11.75;;;8.00;;
58139;SDS011;53185;47.378;18.922;2022-08-19T03:40:38;12.30;;;8.48;;
58139;SDS011;53185;47.378;18.922;2022-08-19T03:43:05;13.02;;;8.50;;
58139;SDS011;53185;47.378;18.922;2022-08-19T03:45:32;14.93;;;8.93;;
58139;SDS011;53185;47.378;18.922;2022-08-19T03:47:59;10.88;;;7.90;;
58139;SDS011;53185;47.378;18.922;2022-08-19T03:50:27;13.50;;;9.25;;
58139;SDS011;53185;47.378;18.922;2022-08-19T03:52:54;13.30;;;8.50;;
58139;SDS011;53185;47.378;18.922;2022-08-19T03:55:21;17.75;;;8.88;;
58139;SDS011;53185;47.378;18.922;2022-08-19T03:57:48;14.00;;;8.82;;
58139;SDS011;53185;47.378;18.922;2022-08-19T04:00:15;15.85;;;8.13;;
58139;SDS011;53185;47.378;18.922;2022-08-19T04:02:42;14.63;;;10.43;;
58139;SDS011;53185;47.378;18.922;2022-08-19T04:05:27;15.00;;;8.70;;
58139;SDS011;53185;47.378;18.922;2022-08-19T04:07:55;18.50;;;8.80;;
58139;SDS011;53185;47.378;18.922;2022-08-19T04:10:25;22.37;;;8.43;;
58139;SDS011;53185;47.378;18.922;2022-08-19T04:12:55;17.67;;;9.20;;
58139;SDS011;53185;47.378;18.922;2022-08-19T04:15:21;17.70;;;8.88;;
58139;SDS011;53185;47.378;18.922;2022-08-19T04:17:48;16.02;;;8.40;;
58139;SDS011;53185;47.378;18.922;2022-08-19T04:20:16;20.98;;;9.25;;
58139;SDS011;53185;47.378;18.922;2022-08-19T04:22:43;12.90;;;8.57;;
58139;SDS011;53185;47.378;18.922;2022-08-19T04:25:10;14.60;;;7.87;;
58139;SDS011;53185;47.378;18.922;2022-08-19T04:27:37;13.25;;;8.38;;
58139;SDS011;53185;47.378;18.922;2022-08-19T04:30:07;13.10;;;8.48;;
58139;SDS011;53185;47.378;18.922;2022-08-19T04:32:34;11.98;;;7.35;;
58139;SDS011;53185;47.378;18.922;2022-08-19T04:35:05;22.48;;;9.65;;
58139;SDS011;53185;47.378;18.922;2022-08-19T04:37:44;17.50;;;9.07;;
58139;SDS011;53185;47.378;18.922;2022-08-19T04:40:11;14.30;;;8.38;;
58139;SDS011;53185;47.378;18.922;2022-08-19T04:42:57;15.60;;;9.23;;
58139;SDS011;53185;47.378;18.922;2022-08-19T04:45:24;15.73;;;8.52;;
58139;SDS011;53185;47.378;18.922;2022-08-19T04:47:54;20.17;;;8.93;;
58139;SDS011;53185;47.378;18.922;2022-08-19T04:50:43;14.60;;;9.02;;
58139;SDS011;53185;47.378;18.922;2022-08-19T04:53:10;16.77;;;9.07;;
58139;SDS011;53185;47.378;18.922;2022-08-19T04:55:40;16.40;;;8.25;;
58139;SDS011;53185;47.378;18.922;2022-08-19T04:58:08;12.30;;;8.75;;
58139;SDS011;53185;47.378;18.922;2022-08-19T05:00:37;11.63;;;7.72;;
58139;SDS011;53185;47.378;18.922;2022-08-19T05:03:05;15.98;;;8.52;;
58139;SDS011;53185;47.378;18.922;2022-08-19T05:05:33;26.08;;;8.45;;
58139;SDS011;53185;47.378;18.922;2022-08-19T05:08:20;18.40;;;7.95;;
58139;SDS011;53185;47.378;18.922;2022-08-19T05:10:57;18.33;;;7.35;;
58139;SDS011;53185;47.378;18.922;2022-08-19T05:13:24;13.62;;;8.25;;
58139;SDS011;53185;47.378;18.922;2022-08-19T05:15:57;14.20;;;8.05;;
58139;SDS011;53185;47.378;18.922;2022-08-19T05:18:25;10.60;;;7.65;;
58139;SDS011;53185;47.378;18.922;2022-08-19T05:21:12;14.05;;;7.68;;
58139;SDS011;53185;47.378;18.922;2022-08-19T05:24:01;13.55;;;7.82;;
58139;SDS011;53185;47.378;18.922;2022-08-19T05:26:28;11.63;;;7.78;;
58139;SDS011;53185;47.378;18.922;2022-08-19T05:28:55;14.70;;;8.63;;
58139;SDS011;53185;47.378;18.922;2022-08-19T05:31:22;12.88;;;8.13;;
58139;SDS011;53185;47.378;18.922;2022-08-19T05:33:49;22.25;;;7.95;;
58139;SDS011;53185;47.378;18.922;2022-08-19T05:36:16;14.27;;;7.43;;
58139;SDS011;53185;47.378;18.922;2022-08-19T05:38:45;15.38;;;8.02;;
58139;SDS011;53185;47.378;18.922;2022-08-19T05:41:14;19.23;;;7.95;;
58139;SDS011;53185;47.378;18.922;2022-08-19T05:43:41;17.40;;;8.07;;
58139;SDS011;53185;47.378;18.922;2022-08-19T05:46:08;18.65;;;8.35;;
58139;SDS011;53185;47.378;18.922;2022-08-19T05:48:53;16.05;;;7.28;;
58139;SDS011;53185;47.378;18.922;2022-08-19T05:51:23;25.23;;;8.57;;
58139;SDS011;53185;47.378;18.922;2022-08-19T05:53:54;18.62;;;7.53;;
58139;SDS011;53185;47.378;18.922;2022-08-19T05:56:21;11.07;;;7.25;;
58139;SDS011;53185;47.378;18.922;2022-08-19T05:58:48;11.40;;;7.20;;
58139;SDS011;53185;47.378;18.922;2022-08-19T06:01:17;13.77;;;7.93;;
58139;SDS011;53185;47.378;18.922;2022-08-19T06:03:45;11.57;;;7.35;;
58139;SDS011;53185;47.378;18.922;2022-08-19T06:06:12;10.57;;;7.45;;
58139;SDS011;53185;47.378;18.922;2022-08-19T06:08:40;14.85;;;6.97;;
58139;SDS011;53185;47.378;18.922;2022-08-19T06:13:44;13.55;;;7.32;;
58139;SDS011;53185;47.378;18.922;2022-08-19T06:16:14;10.65;;;7.28;;
58139;SDS011;53185;47.378;18.922;2022-08-19T06:18:50;14.20;;;8.98;;
58139;SDS011;53185;47.378;18.922;2022-08-19T06:21:19;13.88;;;8.07;;
58139;SDS011;53185;47.378;18.922;2022-08-19T06:23:47;17.02;;;8.43;;
58139;SDS011;53185;47.378;18.922;2022-08-19T06:26:15;13.18;;;7.30;;
58139;SDS011;53185;47.378;18.922;2022-08-19T06:28:42;10.82;;;7.00;;
58139;SDS011;53185;47.378;18.922;2022-08-19T06:31:13;11.18;;;6.93;;
58139;SDS011;53185;47.378;18.922;2022-08-19T06:33:44;12.98;;;7.35;;
58139;SDS011;53185;47.378;18.922;2022-08-19T06:38:54;11.30;;;7.05;;
58139;SDS011;53185;47.378;18.922;2022-08-19T06:41:21;13.43;;;7.53;;
58139;SDS011;53185;47.378;18.922;2022-08-19T06:43:48;18.87;;;7.68;;
58139;SDS011;53185;47.378;18.922;2022-08-19T06:46:19;19.95;;;7.62;;
58139;SDS011;53185;47.378;18.922;2022-08-19T06:48:48;13.15;;;7.55;;
58139;SDS011;53185;47.378;18.922;2022-08-19T06:51:16;14.65;;;6.75;;
58139;SDS011;53185;47.378;18.922;2022-08-19T06:53:49;17.85;;;6.07;;
58139;SDS011;53185;47.378;18.922;2022-08-19T06:56:23;10.63;;;6.50;;
58139;SDS011;53185;47.378;18.922;2022-08-19T06:58:58;11.77;;;6.65;;
58139;SDS011;53185;47.378;18.922;2022-08-19T07:01:25;12.27;;;6.12;;
58139;SDS011;53185;47.378;18.922;2022-08-19T07:03:52;12.35;;;6.18;;
58139;SDS011;53185;47.378;18.922;2022-08-19T07:06:19;13.25;;;6.15;;
58139;SDS011;53185;47.378;18.922;2022-08-19T07:09:07;7.82;;;6.07;;
58139;SDS011;53185;47.378;18.922;2022-08-19T07:11:35;11.95;;;6.65;;
58139;SDS011;53185;47.378;18.922;2022-08-19T07:14:02;12.80;;;6.28;;
58139;SDS011;53185;47.378;18.922;2022-08-19T07:16:29;14.93;;;6.43;;
58139;SDS011;53185;47.378;18.922;2022-08-19T07:18:57;10.55;;;6.10;;
58139;SDS011;53185;47.378;18.922;2022-08-19T07:21:26;11.25;;;6.40;;
58139;SDS011;53185;47.378;18.922;2022-08-19T07:24:03;14.87;;;6.43;;
58139;SDS011;53185;47.378;18.922;2022-08-19T07:26:33;13.73;;;7.25;;
58139;SDS011;53185;47.378;18.922;2022-08-19T07:29:08;9.45;;;6.32;;
58139;SDS011;53185;47.378;18.922;2022-08-19T07:31:36;22.75;;;7.15;;
58139;SDS011;53185;47.378;18.922;2022-08-19T07:34:05;10.57;;;6.07;;
58139;SDS011;53185;47.378;18.922;2022-08-19T07:36:38;10.10;;;6.22;;
58139;SDS011;53185;47.378;18.922;2022-08-19T07:39:08;13.77;;;6.28;;
58139;SDS011;53185;47.378;18.922;2022-08-19T07:41:39;11.73;;;5.62;;
58139;SDS011;53185;47.378;18.922;2022-08-19T07:44:07;13.13;;;6.28;;
58139;SDS011;53185;47.378;18.922;2022-08-19T07:46:35;16.55;;;6.95;;
58139;SDS011;53185;47.378;18.922;2022-08-19T07:49:05;9.07;;;5.40;;
58139;SDS011;53185;47.378;18.922;2022-08-19T07:51:33;9.63;;;6.30;;
58139;SDS011;53185;47.378;18.922;2022-08-19T07:54:02;12.43;;;6.68;;
58139;SDS011;53185;47.378;18.922;2022-08-19T07:56:30;17.05;;;7.15;;
58139;SDS011;53185;47.378;18.922;2022-08-19T07:58:57;15.65;;;6.70;;
58139;SDS011;53185;47.378;18.922;2022-08-19T08:01:25;14.87;;;6.43;;
58139;SDS011;53185;47.378;18.922;2022-08-19T08:03:55;9.25;;;6.10;;
58139;SDS011;53185;47.378;18.922;2022-08-19T08:06:41;11.85;;;6.18;;
58139;SDS011;53185;47.378;18.922;2022-08-19T08:09:30;17.37;;;6.22;;
58139;SDS011;53185;47.378;18.922;2022-08-19T08:12:00;10.68;;;5.87;;
58139;SDS011;53185;47.378;18.922;2022-08-19T08:14:53;15.02;;;6.43;;
58139;SDS011;53185;47.378;18.922;2022-08-19T08:20:13;11.60;;;5.68;;
58139;SDS011;53185;47.378;18.922;2022-08-19T08:22:44;9.90;;;6.45;;
58139;SDS011;53185;47.378;18.922;2022-08-19T08:25:31;16.95;;;6.60;;
58139;SDS011;53185;47.378;18.922;2022-08-19T08:28:01;12.00;;;6.22;;
58139;SDS011;53185;47.378;18.922;2022-08-19T08:30:29;18.80;;;6.22;;
58139;SDS011;53185;47.378;18.922;2022-08-19T08:32:58;13.07;;;6.70;;
58139;SDS011;53185;47.378;18.922;2022-08-19T08:35:28;13.65;;;6.37;;
58139;SDS011;53185;47.378;18.922;2022-08-19T08:37:55;17.10;;;6.60;;
58139;SDS011;53185;47.378;18.922;2022-08-19T08:40:38;8.40;;;5.50;;
58139;SDS011;53185;47.378;18.922;2022-08-19T08:45:42;14.02;;;5.40;;
58139;SDS011;53185;47.378;18.922;2022-08-19T08:48:24;11.07;;;5.95;;
58139;SDS011;53185;47.378;18.922;2022-08-19T08:51:02;6.15;;;5.53;;
58139;SDS011;53185;47.378;18.922;2022-08-19T08:53:30;11.02;;;5.07;;
58139;SDS011;53185;47.378;18.922;2022-08-19T08:56:05;9.77;;;5.32;;
58139;SDS011;53185;47.378;18.922;2022-08-19T08:58:36;11.90;;;5.68;;
58139;SDS011;53185;47.378;18.922;2022-08-19T09:01:10;8.88;;;5.65;;
58139;SDS011;53185;47.378;18.922;2022-08-19T09:03:38;12.43;;;5.80;;
58139;SDS011;53185;47.378;18.922;2022-08-19T09:17:09;8.57;;;5.07;;
58139;SDS011;53185;47.378;18.922;2022-08-19T09:19:47;13.27;;;6.28;;
58139;SDS011;53185;47.378;18.922;2022-08-19T09:22:16;24.92;;;6.30;;
58139;SDS011;53185;47.378;18.922;2022-08-19T09:24:53;12.68;;;8.07;;
58139;SDS011;53185;47.378;18.922;2022-08-19T09:27:20;13.40;;;5.50;;
58139;SDS011;53185;47.378;18.922;2022-08-19T09:30:10;11.23;;;6.03;;
58139;SDS011;53185;47.378;18.922;2022-08-19T09:32:41;11.63;;;5.72;;
58139;SDS011;53185;47.378;18.922;2022-08-19T09:35:09;12.88;;;7.10;;
58139;SDS011;53185;47.378;18.922;2022-08-19T09:37:37;11.73;;;5.85;;
58139;SDS011;53185;47.378;18.922;2022-08-19T09:40:06;8.77;;;5.43;;
58139;SDS011;53185;47.378;18.922;2022-08-19T09:45:06;10.82;;;5.75;;
58139;SDS011;53185;47.378;18.922;2022-08-19T09:47:36;11.12;;;4.70;;
58139;SDS011;53185;47.378;18.922;2022-08-19T09:50:07;7.80;;;4.85;;
58139;SDS011;53185;47.378;18.922;2022-08-19T09:52:36;8.77;;;5.68;;
58139;SDS011;53185;47.378;18.922;2022-08-19T09:55:20;9.95;;;5.35;;
58139;SDS011;53185;47.378;18.922;2022-08-19T10:00:16;9.85;;;5.70;;
58139;SDS011;53185;47.378;18.922;2022-08-19T10:02:44;9.77;;;5.35;;
58139;SDS011;53185;47.378;18.922;2022-08-19T10:05:11;14.87;;;5.53;;
58139;SDS011;53185;47.378;18.922;2022-08-19T10:07:57;8.55;;;5.28;;
58139;SDS011;53185;47.378;18.922;2022-08-19T10:10:23;14.25;;;5.65;;
58139;SDS011;53185;47.378;18.922;2022-08-19T10:12:52;13.48;;;5.28;;
58139;SDS011;53185;47.378;18.922;2022-08-19T10:15:19;20.58;;;8.05;;
58139;SDS011;53185;47.378;18.922;2022-08-19T10:17:55;15.73;;;5.93;;
58139;SDS011;53185;47.378;18.922;2022-08-19T10:20:24;11.48;;;6.20;;
58139;SDS011;53185;47.378;18.922;2022-08-19T10:22:51;7.28;;;5.70;;
58139;SDS011;53185;47.378;18.922;2022-08-19T10:25:19;8.68;;;5.90;;
58139;SDS011;53185;47.378;18.922;2022-08-19T10:27:46;22.70;;;14.10;;
58139;SDS011;53185;47.378;18.922;2022-08-19T10:30:17;19.48;;;11.12;;
58139;SDS011;53185;47.378;18.922;2022-08-19T10:32:45;7.70;;;5.97;;
58139;SDS011;53185;47.378;18.922;2022-08-19T10:35:13;8.88;;;5.47;;
58139;SDS011;53185;47.378;18.922;2022-08-19T10:37:47;13.18;;;5.97;;
58139;SDS011;53185;47.378;18.922;2022-08-19T10:40:26;17.25;;;7.93;;
58139;SDS011;53185;47.378;18.922;2022-08-19T10:42:54;12.82;;;9.88;;
58139;SDS011;53185;47.378;18.922;2022-08-19T10:45:22;10.15;;;7.37;;
58139;SDS011;53185;47.378;18.922;2022-08-19T10:47:54;12.82;;;7.97;;
58139;SDS011;53185;47.378;18.922;2022-08-19T10:50:21;12.40;;;8.55;;
58139;SDS011;53185;47.378;18.922;2022-08-19T10:53:08;11.80;;;8.82;;
58139;SDS011;53185;47.378;18.922;2022-08-19T10:55:35;20.30;;;12.32;;
58139;SDS011;53185;47.378;18.922;2022-08-19T10:58:21;20.20;;;14.80;;
58139;SDS011;53185;47.378;18.922;2022-08-19T11:00:52;32.90;;;14.05;;
58139;SDS011;53185;47.378;18.922;2022-08-19T11:03:20;19.08;;;12.80;;
58139;SDS011;53185;47.378;18.922;2022-08-19T11:06:00;15.80;;;11.45;;
58139;SDS011;53185;47.378;18.922;2022-08-19T11:08:29;15.27;;;13.77;;
58139;SDS011;53185;47.378;18.922;2022-08-19T11:10:59;22.05;;;15.15;;
58139;SDS011;53185;47.378;18.922;2022-08-19T11:13:28;16.73;;;15.15;;
58139;SDS011;53185;47.378;18.922;2022-08-19T11:16:00;14.35;;;12.63;;
58139;SDS011;53185;47.378;18.922;2022-08-19T11:18:34;19.65;;;11.57;;
58139;SDS011;53185;47.378;18.922;2022-08-19T11:21:09;18.30;;;13.35;;
58139;SDS011;53185;47.378;18.922;2022-08-19T11:23:46;22.62;;;13.48;;
58139;SDS011;53185;47.378;18.922;2022-08-19T11:26:14;17.75;;;13.88;;
58139;SDS011;53185;47.378;18.922;2022-08-19T11:28:41;13.93;;;12.07;;
58139;SDS011;53185;47.378;18.922;2022-08-19T11:31:12;18.02;;;11.85;;
58139;SDS011;53185;47.378;18.922;2022-08-19T11:33:41;17.65;;;12.73;;
58139;SDS011;53185;47.378;18.922;2022-08-19T11:36:13;13.00;;;11.60;;
58139;SDS011;53185;47.378;18.922;2022-08-19T11:38:41;15.70;;;12.57;;
58139;SDS011;53185;47.378;18.922;2022-08-19T11:41:08;18.37;;;14.57;;
58139;SDS011;53185;47.378;18.922;2022-08-19T11:43:36;37.20;;;18.70;;
58139;SDS011;53185;47.378;18.922;2022-08-19T11:46:08;19.52;;;15.57;;
58139;SDS011;53185;47.378;18.922;2022-08-19T11:48:36;20.20;;;15.60;;
58139;SDS011;53185;47.378;18.922;2022-08-19T11:51:06;25.57;;;17.53;;
58139;SDS011;53185;47.378;18.922;2022-08-19T11:53:39;23.45;;;17.65;;
58139;SDS011;53185;47.378;18.922;2022-08-19T11:56:07;21.08;;;15.85;;
58139;SDS011;53185;47.378;18.922;2022-08-19T11:58:35;24.35;;;16.40;;
58139;SDS011;53185;47.378;18.922;2022-08-19T12:01:06;19.75;;;14.65;;
58139;SDS011;53185;47.378;18.922;2022-08-19T12:03:35;16.60;;;11.65;;
58139;SDS011;53185;47.378;18.922;2022-08-19T12:06:05;18.70;;;9.02;;
58139;SDS011;53185;47.378;18.922;2022-08-19T12:08:35;14.98;;;7.50;;
58139;SDS011;53185;47.378;18.922;2022-08-19T12:11:03;13.30;;;7.37;;
58139;SDS011;53185;47.378;18.922;2022-08-19T12:13:30;19.05;;;8.40;;
58139;SDS011;53185;47.378;18.922;2022-08-19T12:15:57;11.02;;;6.80;;
58139;SDS011;53185;47.378;18.922;2022-08-19T12:18:25;13.60;;;5.47;;
58139;SDS011;53185;47.378;18.922;2022-08-19T12:20:53;15.90;;;6.05;;
58139;SDS011;53185;47.378;18.922;2022-08-19T12:23:23;13.30;;;8.52;;
58139;SDS011;53185;47.378;18.922;2022-08-19T12:25:50;12.98;;;7.47;;
58139;SDS011;53185;47.378;18.922;2022-08-19T12:28:22;10.50;;;4.55;;
58139;SDS011;53185;47.378;18.922;2022-08-19T12:30:50;17.23;;;5.28;;
58139;SDS011;53185;47.378;18.922;2022-08-19T12:33:18;14.55;;;5.20;;
58139;SDS011;53185;47.378;18.922;2022-08-19T12:35:46;14.95;;;5.07;;
58139;SDS011;53185;47.378;18.922;2022-08-19T12:38:13;14.20;;;5.03;;
58139;SDS011;53185;47.378;18.922;2022-08-19T12:40:41;9.95;;;5.20;;
58139;SDS011;53185;47.378;18.922;2022-08-19T12:43:08;10.52;;;4.40;;
58139;SDS011;53185;47.378;18.922;2022-08-19T12:45:35;14.38;;;10.55;;
58139;SDS011;53185;47.378;18.922;2022-08-19T12:48:03;13.23;;;5.10;;
58139;SDS011;53185;47.378;18.922;2022-08-19T12:50:51;16.58;;;9.05;;
58139;SDS011;53185;47.378;18.922;2022-08-19T12:53:18;10.88;;;6.60;;
58139;SDS011;53185;47.378;18.922;2022-08-19T12:55:45;14.23;;;6.53;;
58139;SDS011;53185;47.378;18.922;2022-08-19T12:58:12;11.52;;;4.28;;
58139;SDS011;53185;47.378;18.922;2022-08-19T13:00:39;8.88;;;4.18;;
58139;SDS011;53185;47.378;18.922;2022-08-19T13:03:07;6.82;;;4.53;;
58139;SDS011;53185;47.378;18.922;2022-08-19T13:05:34;10.15;;;5.07;;
58139;SDS011;53185;47.378;18.922;2022-08-19T13:08:01;16.62;;;5.25;;
58139;SDS011;53185;47.378;18.922;2022-08-19T13:10:32;6.78;;;4.80;;
58139;SDS011;53185;47.378;18.922;2022-08-19T13:13:03;15.57;;;10.98;;
58139;SDS011;53185;47.378;18.922;2022-08-19T13:15:33;18.37;;;6.47;;
58139;SDS011;53185;47.378;18.922;2022-08-19T13:18:01;13.15;;;7.95;;
58139;SDS011;53185;47.378;18.922;2022-08-19T13:20:28;19.92;;;6.55;;
58139;SDS011;53185;47.378;18.922;2022-08-19T13:22:55;18.12;;;5.70;;
58139;SDS011;53185;47.378;18.922;2022-08-19T13:25:24;25.15;;;5.35;;
58139;SDS011;53185;47.378;18.922;2022-08-19T13:27:51;23.67;;;4.80;;
58139;SDS011;53185;47.378;18.922;2022-08-19T13:30:19;19.77;;;4.18;;
58139;SDS011;53185;47.378;18.922;2022-08-19T13:33:05;22.08;;;5.05;;
58139;SDS011;53185;47.378;18.922;2022-08-19T13:35:43;34.53;;;5.70;;
58139;SDS011;53185;47.378;18.922;2022-08-19T13:38:12;16.20;;;4.97;;
58139;SDS011;53185;47.378;18.922;2022-08-19T13:43:08;31.10;;;5.90;;
58139;SDS011;53185;47.378;18.922;2022-08-19T13:45:49;39.05;;;5.68;;
58139;SDS011;53185;47.378;18.922;2022-08-19T13:48:17;28.67;;;5.00;;
58139;SDS011;53185;47.378;18.922;2022-08-19T13:50:45;20.43;;;5.20;;
58139;SDS011;53185;47.378;18.922;2022-08-19T13:55:41;30.58;;;8.60;;
58139;SDS011;53185;47.378;18.922;2022-08-19T13:58:09;21.77;;;7.53;;
58139;SDS011;53185;47.378;18.922;2022-08-19T14:00:39;23.42;;;4.65;;
58139;SDS011;53185;47.378;18.922;2022-08-19T14:03:08;19.65;;;4.20;;
58139;SDS011;53185;47.378;18.922;2022-08-19T14:05:35;27.73;;;4.32;;
58139;SDS011;53185;47.378;18.922;2022-08-19T14:08:02;17.15;;;6.68;;
58139;SDS011;53185;47.378;18.922;2022-08-19T14:10:30;18.17;;;3.72;;
58139;SDS011;53185;47.378;18.922;2022-08-19T14:13:00;20.67;;;8.00;;
58139;SDS011;53185;47.378;18.922;2022-08-19T14:15:28;13.48;;;4.22;;
58139;SDS011;53185;47.378;18.922;2022-08-19T14:17:56;32.25;;;5.65;;
58139;SDS011;53185;47.378;18.922;2022-08-19T14:20:23;25.02;;;4.25;;
58139;SDS011;53185;47.378;18.922;2022-08-19T14:22:52;19.10;;;4.15;;
58139;SDS011;53185;47.378;18.922;2022-08-19T14:25:22;32.47;;;4.20;;
58139;SDS011;53185;47.378;18.922;2022-08-19T14:27:51;27.48;;;4.37;;
58139;SDS011;53185;47.378;18.922;2022-08-19T14:30:20;17.95;;;3.70;;
58139;SDS011;53185;47.378;18.922;2022-08-19T14:32:56;13.05;;;3.05;;
58139;SDS011;53185;47.378;18.922;2022-08-19T14:35:25;17.17;;;3.58;;
58139;SDS011;53185;47.378;18.922;2022-08-19T14:37:53;29.30;;;5.00;;
58139;SDS011;53185;47.378;18.922;2022-08-19T14:40:24;18.77;;;4.50;;
58139;SDS011;53185;47.378;18.922;2022-08-19T14:42:54;17.52;;;2.78;;
58139;SDS011;53185;47.378;18.922;2022-08-19T14:45:27;19.17;;;3.15;;
58139;SDS011;53185;47.378;18.922;2022-08-19T14:47:54;25.58;;;3.30;;
58139;SDS011;53185;47.378;18.922;2022-08-19T14:50:22;14.95;;;3.05;;
58139;SDS011;53185;47.378;18.922;2022-08-19T14:52:49;21.45;;;3.67;;
58139;SDS011;53185;47.378;18.922;2022-08-19T14:55:18;23.15;;;5.07;;
58139;SDS011;53185;47.378;18.922;2022-08-19T14:57:45;21.08;;;4.03;;
58139;SDS011;53185;47.378;18.922;2022-08-19T15:00:12;14.25;;;2.80;;
58139;SDS011;53185;47.378;18.922;2022-08-19T15:02:40;14.90;;;4.25;;
58139;SDS011;53185;47.378;18.922;2022-08-19T15:05:08;16.98;;;2.87;;
58139;SDS011;53185;47.378;18.922;2022-08-19T15:07:39;20.33;;;3.33;;
58139;SDS011;53185;47.378;18.922;2022-08-19T15:10:10;11.12;;;3.10;;
58139;SDS011;53185;47.378;18.922;2022-08-19T15:12:38;13.10;;;3.47;;
58139;SDS011;53185;47.378;18.922;2022-08-19T15:15:13;18.52;;;2.80;;
58139;SDS011;53185;47.378;18.922;2022-08-19T15:17:41;15.75;;;3.40;;
58139;SDS011;53185;47.378;18.922;2022-08-19T15:20:14;21.40;;;3.90;;
58139;SDS011;53185;47.378;18.922;2022-08-19T15:22:44;30.08;;;11.98;;